createdAt,value
2019-04-10T07:28:19.433Z,26.70
2019-04-10T07:29:20.984Z,19.50
2019-04-10T07:30:19.497Z,20.00
2019-04-10T07:31:19.333Z,19.90
2019-04-10T07:32:19.347Z,19.10
2019-04-10T07:33:19.625Z,19.80
2019-04-10T07:34:22.043Z,19.70
2019-04-10T07:35:21.479Z,19.00
2019-04-10T07:36:18.262Z,19.10
2019-04-10T07:37:21.607Z,18.80
2019-04-10T07:38:21.230Z,19.10
2019-04-10T07:39:18.392Z,20.30
2019-04-10T07:40:18.598Z,18.90
2019-04-10T07:41:21.329Z,18.70
2019-04-10T07:42:26.751Z,19.00
2019-04-10T07:43:25.489Z,19.30
2019-04-10T07:44:19.034Z,19.30
2019-04-10T07:45:17.993Z,18.30
2019-04-10T07:46:17.989Z,17.80
2019-04-10T07:47:17.984Z,19.80
2019-04-10T07:48:18.444Z,19.30
2019-04-10T07:49:19.445Z,19.20
2019-04-10T07:50:18.379Z,18.80
2019-04-10T07:51:18.996Z,18.70
2019-04-10T07:52:20.836Z,18.80
2019-04-10T07:53:18.874Z,18.60
2019-04-10T07:54:20.924Z,19.40
2019-04-10T07:55:18.992Z,18.60
2019-04-10T07:56:20.699Z,19.10
2019-04-10T07:57:17.856Z,18.90
2019-04-10T07:58:17.845Z,18.80
2019-04-10T07:59:18.487Z,18.00
2019-04-10T08:00:18.145Z,18.60
2019-04-10T08:01:18.286Z,18.60
2019-04-10T08:02:17.803Z,19.00
2019-04-10T08:03:18.861Z,18.60
2019-04-10T08:04:18.250Z,18.00
2019-04-10T08:05:18.860Z,18.30
2019-04-10T08:06:17.947Z,19.10
2019-04-10T08:07:27.642Z,18.40
2019-04-10T08:08:19.337Z,18.00
2019-04-10T08:09:18.785Z,18.30
2019-04-10T08:10:17.967Z,18.70
2019-04-10T08:11:17.704Z,18.20
2019-04-10T08:12:17.698Z,18.60
2019-04-10T08:13:17.678Z,17.60
2019-04-10T08:14:17.693Z,17.70
2019-04-10T08:15:18.698Z,17.20
2019-04-10T08:16:17.642Z,17.80
2019-04-10T08:17:17.633Z,18.40
2019-04-10T08:18:17.620Z,17.70
2019-04-10T08:19:18.496Z,17.90
2019-04-10T08:20:17.735Z,17.80
2019-04-10T08:21:17.791Z,17.90
2019-04-10T08:22:17.953Z,17.50
2019-04-10T08:23:17.644Z,17.70
2019-04-10T08:24:18.167Z,17.90
2019-04-10T08:25:18.452Z,17.70
2019-04-10T08:26:18.330Z,17.30
2019-04-10T08:27:17.517Z,17.70
2019-04-10T08:28:17.865Z,18.40
2019-04-10T08:29:18.219Z,18.10
2019-04-10T08:30:17.543Z,18.40
2019-04-10T08:31:17.473Z,17.50
2019-04-10T08:32:18.111Z,18.20
2019-04-10T08:33:17.566Z,18.80
2019-04-10T08:34:17.438Z,22.90
2019-04-10T08:35:17.510Z,17.90
2019-04-10T08:36:17.416Z,17.30
2019-04-10T08:37:18.744Z,17.50
2019-04-10T08:38:17.397Z,18.00
2019-04-10T08:39:31.769Z,19.10
2019-04-10T08:40:19.093Z,18.40
2019-04-10T08:41:17.361Z,17.90
2019-04-10T08:42:17.360Z,17.60
2019-04-10T08:43:17.338Z,17.00
2019-04-10T08:44:17.724Z,17.50
2019-04-10T08:45:17.342Z,17.50
2019-04-10T08:46:17.734Z,17.30
2019-04-10T08:47:17.362Z,17.30
2019-04-10T08:48:17.674Z,17.50
2019-04-10T08:49:18.317Z,16.80
2019-04-10T08:50:17.440Z,17.30
2019-04-10T08:51:17.246Z,17.70
2019-04-10T08:52:17.237Z,19.00
2019-04-10T08:53:18.062Z,17.70
2019-04-10T08:54:18.325Z,17.30
2019-04-10T08:55:17.765Z,17.10
2019-04-10T08:56:18.352Z,16.30
2019-04-10T08:57:17.254Z,17.60
2019-04-10T08:58:17.169Z,17.10
2019-04-10T08:59:17.157Z,17.70
2019-04-10T09:00:17.176Z,17.00
2019-04-10T09:01:17.444Z,16.10
2019-04-10T09:02:18.008Z,16.40
2019-04-10T09:03:17.114Z,16.80
2019-04-10T09:04:17.856Z,16.60
2019-04-10T09:05:17.511Z,16.40
2019-04-10T09:06:17.507Z,17.70
2019-04-10T09:07:17.068Z,15.90
2019-04-10T09:08:17.099Z,16.50
2019-04-10T09:09:17.341Z,15.80
2019-04-10T09:10:17.040Z,17.10
2019-04-10T09:11:25.472Z,16.00
2019-04-10T09:12:18.009Z,16.20
2019-04-10T09:13:17.014Z,16.70
2019-04-10T09:14:17.111Z,17.10
2019-04-10T09:15:18.056Z,16.50
2019-04-10T09:16:16.987Z,16.20
2019-04-10T09:17:17.405Z,15.90
2019-04-10T09:18:16.945Z,15.60
2019-04-10T09:19:18.900Z,16.60
2019-04-10T09:20:16.921Z,15.90
2019-04-10T09:21:17.465Z,16.20
2019-04-10T09:22:16.897Z,15.60
2019-04-10T09:23:35.118Z,16.00
2019-04-10T09:24:17.874Z,16.90
2019-04-10T09:25:17.828Z,15.80
2019-04-10T09:26:17.042Z,15.30
2019-04-10T09:27:17.177Z,14.90
2019-04-10T09:28:18.079Z,15.80
2019-04-10T09:29:16.817Z,16.20
2019-04-10T09:30:16.807Z,16.30
2019-04-10T09:31:17.726Z,15.50
2019-04-10T09:32:18.010Z,15.70
2019-04-10T09:33:23.009Z,15.70
2019-04-10T09:34:18.003Z,15.80
2019-04-10T09:35:16.748Z,16.20
2019-04-10T09:36:18.134Z,15.90
2019-04-10T09:37:17.784Z,15.20
2019-04-10T09:38:16.862Z,16.70
2019-04-10T09:39:17.172Z,17.00
2019-04-10T09:40:16.692Z,16.20
2019-04-10T09:41:17.483Z,16.80
2019-04-10T09:42:17.173Z,15.60
2019-04-10T09:43:17.697Z,14.80
2019-04-10T09:44:16.652Z,15.10
2019-04-10T09:45:17.788Z,14.60
2019-04-10T09:46:16.674Z,14.50
2019-04-10T09:47:16.613Z,14.90
2019-04-10T09:48:16.630Z,15.90
2019-04-10T09:49:16.692Z,15.50
2019-04-10T09:50:17.254Z,15.90
2019-04-10T09:51:18.450Z,17.20
2019-04-10T09:52:16.702Z,15.60
2019-04-10T09:53:17.050Z,15.80
2019-04-10T09:54:17.488Z,14.80
2019-04-10T09:55:16.536Z,15.70
2019-04-10T09:56:17.272Z,15.50
2019-04-10T09:57:17.551Z,15.00
2019-04-10T09:58:17.575Z,15.10
2019-04-10T09:59:16.478Z,14.40
2019-04-10T10:00:16.476Z,15.10
2019-04-10T10:01:16.481Z,17.00
2019-04-10T10:02:17.603Z,15.80
2019-04-10T10:03:17.361Z,15.70
2019-04-10T10:04:17.352Z,15.40
2019-04-10T10:05:16.449Z,15.80
2019-04-10T10:06:25.334Z,15.40
2019-04-10T10:07:18.416Z,15.00
2019-04-10T10:08:16.380Z,15.90
2019-04-10T10:09:17.538Z,14.50
2019-04-10T10:10:17.193Z,14.80
2019-04-10T10:11:16.343Z,14.80
2019-04-10T10:12:16.363Z,14.90
2019-04-10T10:13:17.262Z,14.80
2019-04-10T10:14:16.766Z,14.80
2019-04-10T10:15:16.866Z,15.40
2019-04-10T10:16:17.002Z,15.20
2019-04-10T10:17:16.875Z,14.40
2019-04-10T10:18:17.235Z,14.50
2019-04-10T10:19:16.251Z,14.80
2019-04-10T10:20:16.539Z,14.90
2019-04-10T10:21:16.635Z,13.90
2019-04-10T10:22:16.820Z,14.10
2019-04-10T10:23:16.214Z,14.20
2019-04-10T10:24:16.341Z,15.00
2019-04-10T10:25:17.287Z,13.70
2019-04-10T10:26:16.171Z,14.10
2019-04-10T10:27:16.185Z,13.80
2019-04-10T10:28:16.154Z,14.80
2019-04-10T10:29:16.138Z,15.90
2019-04-10T10:30:16.149Z,14.30
2019-04-10T10:31:16.132Z,14.60
2019-04-10T10:32:17.068Z,14.00
2019-04-10T10:33:17.328Z,14.70
2019-04-10T10:34:16.391Z,14.90
2019-04-10T10:35:16.774Z,14.90
2019-04-10T10:36:16.061Z,15.00
2019-04-10T10:37:16.641Z,15.50
2019-04-10T10:38:16.036Z,14.30
2019-04-10T10:39:17.180Z,14.40
2019-04-10T10:40:17.170Z,14.30
2019-04-10T10:41:16.004Z,13.30
2019-04-10T10:42:16.014Z,13.90
2019-04-10T10:43:16.226Z,14.30
2019-04-10T10:44:17.231Z,15.00
2019-04-10T10:45:15.965Z,13.00
2019-04-10T10:46:15.952Z,13.80
2019-04-10T10:47:16.009Z,14.10
2019-04-10T10:48:15.926Z,13.50
2019-04-10T10:49:15.989Z,14.10
2019-04-10T10:50:15.899Z,13.90
2019-04-10T10:51:15.896Z,13.80
2019-04-10T10:52:15.903Z,13.90
2019-04-10T10:53:16.408Z,13.10
2019-04-10T10:54:16.782Z,14.10
2019-04-10T10:55:15.845Z,13.30
2019-04-10T10:56:15.842Z,13.40
2019-04-10T10:57:15.828Z,13.00
2019-04-10T10:58:15.833Z,12.30
2019-04-10T10:59:15.807Z,12.30
2019-04-10T11:00:16.876Z,13.10
2019-04-10T11:01:15.872Z,12.70
2019-04-10T11:02:15.765Z,13.60
2019-04-10T11:06:24.763Z,11.30
2019-04-10T11:07:24.556Z,12.10
2019-04-10T11:08:24.246Z,14.10
2019-04-10T11:09:23.998Z,13.60
2019-04-10T11:10:27.090Z,12.30
2019-04-10T11:11:24.103Z,12.90
2019-04-10T11:12:24.189Z,12.80
2019-04-10T11:13:24.226Z,12.90
2019-04-10T11:14:23.746Z,12.70
2019-04-10T11:15:23.919Z,12.90
2019-04-10T11:16:24.769Z,12.90
2019-04-10T11:17:23.610Z,12.70
2019-04-10T11:18:24.784Z,12.10
2019-04-10T11:19:23.601Z,12.40
2019-04-10T11:20:24.131Z,12.10
2019-04-10T11:21:24.685Z,11.30
2019-04-10T11:22:25.654Z,12.20
2019-04-10T11:23:24.541Z,13.70
2019-04-10T11:24:25.169Z,13.00
2019-04-10T11:25:23.744Z,12.10
2019-04-10T11:26:24.244Z,11.80
2019-04-10T11:27:23.505Z,11.50
2019-04-10T11:28:28.654Z,11.70
2019-04-10T11:29:24.474Z,11.30
2019-04-10T11:30:24.886Z,12.60
2019-04-10T11:31:24.130Z,12.70
2019-04-10T11:32:23.993Z,11.70
2019-04-10T11:33:24.992Z,12.60
2019-04-10T11:34:24.296Z,12.20
2019-04-10T11:35:24.265Z,13.10
2019-04-10T11:36:23.645Z,12.50
2019-04-10T11:37:34.418Z,12.40
2019-04-10T11:38:25.893Z,12.30
2019-04-10T11:39:28.243Z,11.80
2019-04-10T11:40:26.732Z,12.00
2019-04-10T11:41:24.048Z,14.30
2019-04-10T11:42:23.331Z,13.90
2019-04-10T11:43:24.854Z,12.50
2019-04-10T11:44:24.785Z,12.10
2019-04-10T11:45:25.500Z,11.70
2019-04-10T11:46:28.257Z,12.10
2019-04-10T11:47:26.355Z,11.80
2019-04-10T11:48:25.306Z,12.20
2019-04-10T11:49:23.834Z,11.70
2019-04-10T11:50:25.381Z,10.80
2019-04-10T11:51:24.070Z,11.10
2019-04-10T11:52:32.778Z,10.60
2019-04-10T11:53:26.442Z,11.40
2019-04-10T11:54:26.443Z,11.30
2019-04-10T11:55:26.141Z,11.80
2019-04-10T11:56:23.641Z,11.40
2019-04-10T11:57:23.154Z,11.30
2019-04-10T11:58:25.208Z,10.70
2019-04-10T11:59:24.399Z,11.70
2019-04-10T12:00:26.767Z,11.00
2019-04-10T12:01:25.439Z,12.30
2019-04-10T12:02:24.977Z,11.60
2019-04-10T12:03:24.618Z,12.10
2019-04-10T12:04:23.368Z,11.40
2019-04-10T12:05:25.460Z,12.10
2019-04-10T12:06:25.250Z,12.40
2019-04-10T12:07:57.425Z,12.50
2019-04-10T12:08:45.281Z,12.40
2019-04-10T12:11:24.719Z,12.10
2019-04-10T12:12:23.798Z,12.20
2019-04-10T12:13:24.064Z,12.00
2019-04-10T12:14:23.738Z,12.00
2019-04-10T12:15:23.929Z,11.70
2019-04-10T12:16:23.136Z,12.90
2019-04-10T12:17:22.929Z,13.60
2019-04-10T12:18:22.924Z,12.80
2019-04-10T12:19:25.020Z,13.00
2019-04-10T12:20:22.970Z,12.50
2019-04-10T12:21:23.977Z,12.60
2019-04-10T12:22:23.313Z,12.00
2019-04-10T12:23:23.159Z,12.50
2019-04-10T12:24:23.797Z,13.20
2019-04-10T12:25:22.942Z,13.40
2019-04-10T12:26:23.468Z,12.40
2019-04-10T12:27:23.088Z,13.30
2019-04-10T12:28:22.802Z,12.50
2019-04-10T12:29:22.791Z,13.00
2019-04-10T12:30:23.520Z,13.20
2019-04-10T12:31:23.815Z,13.30
2019-04-10T12:32:23.027Z,12.50
2019-04-10T12:33:22.758Z,12.40
2019-04-10T12:34:22.732Z,12.80
2019-04-10T12:35:22.748Z,13.00
2019-04-10T12:36:22.712Z,13.10
2019-04-10T12:37:23.585Z,13.30
2019-04-10T12:38:23.446Z,12.90
2019-04-10T12:39:22.766Z,13.10
2019-04-10T12:40:22.700Z,12.20
2019-04-10T12:41:23.500Z,12.50
2019-04-10T12:42:22.652Z,12.10
2019-04-10T12:43:23.185Z,13.10
2019-04-10T12:44:23.360Z,13.30
2019-04-10T12:45:22.634Z,13.10
2019-04-10T12:46:22.601Z,13.80
2019-04-10T12:47:22.591Z,12.70
2019-04-10T12:48:23.033Z,12.60
2019-04-10T12:49:23.430Z,12.80
2019-04-10T12:50:22.649Z,13.80
2019-04-10T12:51:22.549Z,14.30
2019-04-10T12:52:22.796Z,13.70
2019-04-10T12:53:23.330Z,13.70
2019-04-10T12:54:23.685Z,12.50
2019-04-10T12:55:22.532Z,13.00
2019-04-10T12:56:22.485Z,13.00
2019-04-10T12:57:23.126Z,12.10
2019-04-10T12:58:22.534Z,12.50
2019-04-10T12:59:23.522Z,12.80
2019-04-10T13:00:23.577Z,12.40
2019-04-10T13:01:22.737Z,12.40
2019-04-10T13:02:22.625Z,13.00
2019-04-10T13:03:23.066Z,13.40
2019-04-10T13:04:22.397Z,13.20
2019-04-10T13:05:22.406Z,12.60
2019-04-10T13:06:22.380Z,12.30
2019-04-10T13:07:23.341Z,11.70
2019-04-10T13:08:28.803Z,12.50
2019-04-10T13:09:24.226Z,12.60
2019-04-10T13:10:23.169Z,12.80
2019-04-10T13:11:22.547Z,12.00
2019-04-10T13:12:22.998Z,11.90
2019-04-10T13:13:22.301Z,11.80
2019-04-10T13:14:22.287Z,11.60
2019-04-10T13:15:23.326Z,11.20
2019-04-10T13:16:22.284Z,11.90
2019-04-10T13:17:22.722Z,12.60
2019-04-10T13:18:22.554Z,12.50
2019-04-10T13:19:22.238Z,11.70
2019-04-10T13:20:22.215Z,12.10
2019-04-10T13:21:22.240Z,11.60
2019-04-10T13:22:22.290Z,12.80
2019-04-10T13:23:22.503Z,13.20
2019-04-10T13:24:22.166Z,12.30
2019-04-10T13:25:22.157Z,12.20
2019-04-10T13:26:22.177Z,11.30
2019-04-10T13:27:23.079Z,11.80
2019-04-10T13:28:22.127Z,12.40
2019-04-10T13:29:22.562Z,12.20
2019-04-10T13:30:22.113Z,12.30
2019-04-10T13:31:22.093Z,12.00
2019-04-10T13:32:22.106Z,12.50
2019-04-10T13:33:22.608Z,12.70
2019-04-10T13:34:22.071Z,12.00
2019-04-10T13:35:22.058Z,11.90
2019-04-10T13:36:22.038Z,11.90
2019-04-10T13:37:22.123Z,11.20
2019-04-10T13:38:28.623Z,11.80
2019-04-10T13:39:22.998Z,12.00
2019-04-10T13:40:22.016Z,11.00
2019-04-10T13:41:21.981Z,12.00
2019-04-10T13:42:23.132Z,12.30
2019-04-10T13:43:22.183Z,12.60
2019-04-10T13:44:22.397Z,12.00
2019-04-10T13:45:21.931Z,12.90
2019-04-10T13:46:21.917Z,12.40
2019-04-10T13:47:21.938Z,12.20
2019-04-10T13:48:22.876Z,12.20
2019-04-10T13:49:22.024Z,12.80
2019-04-10T13:50:22.226Z,12.90
2019-04-10T13:51:21.862Z,13.20
2019-04-10T13:52:21.879Z,12.70
2019-04-10T13:53:21.846Z,12.40
2019-04-10T13:54:22.805Z,13.40
2019-04-10T13:55:21.818Z,12.60
2019-04-10T13:56:21.808Z,13.40
2019-04-10T13:57:22.261Z,12.60
2019-04-10T13:58:21.803Z,12.00
2019-04-10T13:59:22.636Z,12.30
2019-04-10T14:00:21.760Z,12.50
2019-04-10T14:01:21.754Z,12.30
2019-04-10T14:02:21.741Z,12.70
2019-04-10T14:03:22.648Z,11.60
2019-04-10T14:04:21.714Z,11.90
2019-04-10T14:05:21.966Z,11.80
2019-04-10T14:06:21.717Z,12.60
2019-04-10T14:07:22.094Z,12.30
2019-04-10T14:08:35.981Z,11.60
2019-04-10T14:09:34.950Z,12.70
2019-04-10T14:10:22.919Z,12.20
2019-04-10T14:11:21.637Z,12.10
2019-04-10T14:12:22.817Z,10.90
2019-04-10T14:13:21.986Z,10.70
2019-04-10T14:14:21.604Z,11.20
2019-04-10T14:15:22.312Z,10.70
2019-04-10T14:16:22.408Z,11.10
2019-04-10T14:17:21.605Z,10.70
2019-04-10T14:18:22.046Z,12.60
2019-04-10T14:19:21.547Z,12.10
2019-04-10T14:20:21.769Z,11.40
2019-04-10T14:21:21.749Z,11.70
2019-04-10T14:22:21.854Z,11.70
2019-04-10T14:23:22.241Z,13.50
2019-04-10T14:24:21.999Z,12.50
2019-04-10T14:25:21.481Z,12.50
2019-04-10T14:26:22.479Z,11.90
2019-04-10T14:27:22.767Z,11.70
2019-04-10T14:28:22.215Z,11.30
2019-04-10T14:29:22.544Z,12.10
2019-04-10T14:30:21.454Z,11.70
2019-04-10T14:31:21.411Z,11.50
2019-04-10T14:32:21.401Z,11.90
2019-04-10T14:33:21.412Z,11.00
2019-04-10T14:34:21.385Z,11.20
2019-04-10T14:35:21.382Z,11.60
2019-04-10T14:36:22.371Z,12.00
2019-04-10T14:37:21.341Z,11.50
2019-04-10T14:38:21.354Z,11.30
2019-04-10T14:39:22.787Z,10.50
2019-04-10T14:40:22.131Z,10.60
2019-04-10T14:41:22.094Z,10.70
2019-04-10T14:42:22.305Z,10.60
2019-04-10T14:43:21.304Z,11.00
2019-04-10T14:44:21.270Z,10.40
2019-04-10T14:45:21.496Z,10.00
2019-04-10T14:46:21.241Z,10.00
2019-04-10T14:47:21.275Z,9.80
2019-04-10T14:48:22.320Z,9.90
2019-04-10T14:49:21.208Z,10.40
2019-04-10T14:50:21.935Z,10.00
2019-04-10T14:51:22.001Z,10.40
2019-04-10T14:52:21.171Z,9.80
2019-04-10T14:53:21.184Z,10.10
2019-04-10T14:54:21.747Z,9.80
2019-04-10T14:55:22.004Z,9.80
2019-04-10T14:56:21.990Z,10.30
2019-04-10T14:57:21.134Z,10.70
2019-04-10T14:58:27.512Z,9.60
2019-04-10T14:59:22.141Z,11.20
2019-04-10T15:00:22.349Z,10.40
2019-04-10T15:01:21.963Z,10.40
2019-04-10T15:02:22.182Z,9.50
2019-04-10T15:03:22.487Z,10.00
2019-04-10T15:04:21.353Z,10.00
2019-04-10T15:05:21.677Z,10.60
2019-04-10T15:06:21.996Z,10.30
2019-04-10T15:07:21.862Z,10.50
2019-04-10T15:08:21.773Z,10.00
2019-04-10T15:09:25.593Z,9.80
2019-04-10T15:10:21.982Z,9.90
2019-04-10T15:11:20.961Z,10.20
2019-04-10T15:12:20.954Z,10.70
2019-04-10T15:13:22.702Z,9.40
2019-04-10T15:14:21.631Z,9.80
2019-04-10T15:15:20.912Z,9.00
2019-04-10T15:16:20.956Z,9.70
2019-04-10T15:17:21.089Z,9.30
2019-04-10T15:18:20.895Z,8.70
2019-04-10T15:19:20.890Z,9.00
2019-04-10T15:20:20.965Z,8.80
2019-04-10T15:21:20.909Z,8.70
2019-04-10T15:22:20.831Z,8.40
2019-04-10T15:23:20.823Z,8.30
2019-04-10T15:24:21.650Z,7.60
2019-04-10T15:25:20.805Z,8.60
2019-04-10T15:26:21.821Z,8.60
2019-04-10T15:27:21.572Z,8.70
2019-04-10T15:28:20.763Z,8.80
2019-04-10T15:29:21.338Z,8.60
2019-04-10T15:30:20.761Z,8.30
2019-04-10T15:31:21.542Z,8.60
2019-04-10T15:32:20.730Z,8.40
2019-04-10T15:33:20.706Z,7.50
2019-04-10T15:34:20.760Z,8.00
2019-04-10T15:35:20.686Z,8.50
2019-04-10T15:36:20.688Z,8.10
2019-04-10T15:37:20.772Z,9.40
2019-04-10T15:38:20.652Z,8.60
2019-04-10T15:39:31.411Z,7.50
2019-04-10T15:40:25.598Z,8.70
2019-04-10T15:41:21.619Z,7.70
2019-04-10T15:42:21.720Z,8.40
2019-04-10T15:43:20.938Z,7.60
2019-04-10T15:44:21.771Z,8.20
2019-04-10T15:45:21.592Z,7.90
2019-04-10T15:46:21.302Z,7.90
2019-04-10T15:47:22.999Z,7.70
2019-04-10T15:48:20.930Z,8.00
2019-04-10T15:49:20.530Z,8.30
2019-04-10T15:50:20.601Z,7.70
2019-04-10T15:51:20.520Z,8.50
2019-04-10T15:52:20.507Z,8.60
2019-04-10T15:53:20.506Z,9.90
2019-04-10T15:54:21.506Z,10.30
2019-04-10T15:55:21.595Z,9.60
2019-04-10T15:56:20.493Z,9.20
2019-04-10T15:57:20.650Z,8.40
2019-04-10T15:58:21.503Z,8.00
2019-04-10T15:59:20.418Z,8.60
2019-04-10T16:00:21.218Z,10.60
2019-04-10T16:01:21.576Z,10.50
2019-04-10T16:02:21.616Z,10.80
2019-04-10T16:03:20.379Z,10.20
2019-04-10T16:04:20.363Z,10.80
2019-04-10T16:05:21.556Z,10.30
2019-04-10T16:06:20.976Z,10.60
2019-04-10T16:07:20.379Z,11.20
2019-04-10T16:08:20.481Z,10.40
2019-04-10T16:09:21.061Z,10.50
2019-04-10T16:10:21.048Z,12.00
2019-04-10T16:11:21.496Z,11.20
2019-04-10T16:12:20.709Z,10.30
2019-04-10T16:13:20.256Z,11.20
2019-04-10T16:14:23.301Z,11.60
2019-04-10T16:15:21.528Z,11.10
2019-04-10T16:16:20.248Z,11.10
2019-04-10T16:17:22.308Z,10.90
2019-04-10T16:18:21.093Z,11.20
2019-04-10T16:19:20.490Z,11.30
2019-04-10T16:20:20.222Z,11.00
2019-04-10T16:21:20.402Z,32.90
2019-04-10T16:22:21.288Z,12.90
2019-04-10T16:23:20.167Z,11.20
2019-04-10T16:24:20.658Z,10.60
2019-04-10T16:25:20.123Z,11.00
2019-04-10T16:26:20.146Z,11.00
2019-04-10T16:27:20.212Z,11.20
2019-04-10T16:28:20.735Z,10.50
2019-04-10T16:29:20.338Z,11.50
2019-04-10T16:30:20.065Z,10.70
2019-04-10T16:31:20.101Z,10.80
2019-04-10T16:32:21.014Z,10.70
2019-04-10T16:33:20.032Z,10.60
2019-04-10T16:34:20.018Z,10.80
2019-04-10T16:35:21.055Z,11.00
2019-04-10T16:36:20.036Z,11.10
2019-04-10T16:37:19.985Z,11.20
2019-04-10T16:38:20.534Z,10.50
2019-04-10T16:39:19.963Z,11.10
2019-04-10T16:40:20.706Z,11.80
2019-04-10T16:41:19.979Z,11.40
2019-04-10T16:42:19.927Z,11.60
2019-04-10T16:43:20.190Z,12.10
2019-04-10T16:44:19.908Z,11.60
2019-04-10T16:45:19.894Z,11.50
2019-04-10T16:46:20.513Z,11.20
2019-04-10T16:47:19.873Z,11.30
2019-04-10T16:48:20.924Z,11.50
2019-04-10T16:49:20.326Z,11.40
2019-04-10T16:50:19.839Z,11.30
2019-04-10T16:51:20.504Z,10.90
2019-04-10T16:52:20.855Z,11.30
2019-04-10T16:53:20.118Z,11.00
2019-04-10T16:54:20.468Z,11.20
2019-04-10T16:55:20.677Z,11.10
2019-04-10T16:56:19.795Z,10.90
2019-04-10T16:57:20.685Z,11.40
2019-04-10T16:58:20.070Z,11.30
2019-04-10T16:59:19.754Z,11.30
2019-04-10T17:00:20.684Z,10.90
2019-04-10T17:01:20.505Z,10.50
2019-04-10T17:02:20.071Z,10.90
2019-04-10T17:03:19.815Z,10.80
2019-04-10T17:04:19.873Z,11.10
2019-04-10T17:05:20.638Z,10.50
2019-04-10T17:06:19.932Z,10.10
2019-04-10T17:07:19.654Z,10.40
2019-04-10T17:08:19.741Z,9.60
2019-04-10T17:09:20.655Z,10.20
2019-04-10T17:10:24.085Z,10.20
2019-04-10T17:11:21.012Z,10.30
2019-04-10T17:12:19.955Z,9.90
2019-04-10T17:13:19.581Z,9.90
2019-04-10T17:14:20.865Z,10.20
2019-04-10T17:15:19.811Z,10.20
2019-04-10T17:16:19.834Z,10.10
2019-04-10T17:17:20.163Z,9.90
2019-04-10T17:18:19.531Z,10.20
2019-04-10T17:19:19.523Z,10.30
2019-04-10T17:20:20.337Z,9.90
2019-04-10T17:21:19.933Z,9.40
2019-04-10T17:22:31.178Z,10.20
2019-04-10T17:23:20.635Z,10.20
2019-04-10T17:24:19.470Z,10.00
2019-04-10T17:25:20.180Z,10.10
2019-04-10T17:26:19.430Z,10.30
2019-04-10T17:27:19.517Z,10.30
2019-04-10T17:28:21.995Z,10.20
2019-04-10T17:29:19.397Z,10.00
2019-04-10T17:30:19.958Z,10.40
2019-04-10T17:31:19.378Z,10.10
2019-04-10T17:32:19.425Z,10.30
2019-04-10T17:33:20.571Z,10.10
2019-04-10T17:34:19.343Z,10.90
2019-04-10T17:35:19.457Z,10.90
2019-04-10T17:36:19.338Z,9.90
2019-04-10T17:37:19.333Z,10.20
2019-04-10T17:38:20.483Z,10.60
2019-04-10T17:39:19.668Z,10.40
2019-04-10T17:40:31.205Z,10.20
2019-04-10T17:41:21.573Z,10.40
2019-04-10T17:42:19.919Z,10.20
2019-04-10T17:43:19.241Z,10.60
2019-04-10T17:44:19.229Z,10.30
2019-04-10T17:45:20.490Z,9.90
2019-04-10T17:46:19.437Z,10.40
2019-04-10T17:47:19.221Z,10.20
2019-04-10T17:48:19.894Z,10.50
2019-04-10T17:49:19.370Z,10.50
2019-04-10T17:50:20.230Z,10.50
2019-04-10T17:51:19.768Z,10.00
2019-04-10T17:52:19.176Z,10.20
2019-04-10T17:53:19.124Z,10.40
2019-04-10T17:54:20.026Z,10.20
2019-04-10T17:55:19.715Z,10.00
2019-04-10T17:56:20.128Z,10.00
2019-04-10T17:57:19.108Z,10.40
2019-04-10T17:58:19.236Z,10.30
2019-04-10T17:59:19.058Z,9.70
2019-04-10T18:00:19.047Z,9.60
2019-04-10T18:01:19.036Z,9.90
2019-04-10T18:02:19.061Z,9.70
2019-04-10T18:03:19.088Z,9.50
2019-04-10T18:04:20.059Z,10.00
2019-04-10T18:05:18.989Z,10.30
2019-04-10T18:06:19.366Z,9.50
2019-04-10T18:07:19.670Z,10.30
2019-04-10T18:08:18.987Z,10.20
2019-04-10T18:09:18.959Z,9.60
2019-04-10T18:10:18.934Z,10.20
2019-04-10T18:11:18.940Z,10.60
2019-04-10T18:12:19.596Z,10.00
2019-04-10T18:13:18.922Z,10.10
2019-04-10T18:14:19.443Z,10.50
2019-04-10T18:15:19.837Z,9.60
2019-04-10T18:16:19.920Z,9.30
2019-04-10T18:17:18.854Z,10.30
2019-04-10T18:18:19.840Z,9.60
2019-04-10T18:19:19.165Z,10.10
2019-04-10T18:20:19.880Z,10.10
2019-04-10T18:21:18.807Z,9.60
2019-04-10T18:22:18.796Z,10.80
2019-04-10T18:23:19.642Z,9.70
2019-04-10T18:24:19.943Z,10.10
2019-04-10T18:25:18.812Z,9.60
2019-04-10T18:26:20.662Z,10.20
2019-04-10T18:27:18.781Z,9.30
2019-04-10T18:28:19.228Z,9.60
2019-04-10T18:29:19.087Z,9.70
2019-04-10T18:30:19.544Z,9.60
2019-04-10T18:31:18.802Z,9.60
2019-04-10T18:32:18.683Z,9.50
2019-04-10T18:33:18.716Z,9.40
2019-04-10T18:34:19.377Z,10.00
2019-04-10T18:35:18.649Z,9.20
2019-04-10T18:36:19.542Z,9.20
2019-04-10T18:37:22.004Z,9.40
2019-04-10T18:38:19.552Z,9.70
2019-04-10T18:39:18.616Z,9.80
2019-04-10T18:40:19.083Z,9.70
2019-04-10T18:41:18.585Z,9.70
2019-04-10T18:42:19.423Z,10.00
2019-04-10T18:43:18.560Z,10.10
2019-04-10T18:44:18.573Z,9.60
2019-04-10T18:45:19.604Z,9.50
2019-04-10T18:46:20.799Z,10.30
2019-04-10T18:47:18.672Z,10.20
2019-04-10T18:48:18.705Z,10.30
2019-04-10T18:49:19.012Z,10.50
2019-04-10T18:50:18.478Z,10.50
2019-04-10T18:51:18.476Z,10.30
2019-04-10T18:52:19.166Z,10.40
2019-04-10T18:53:19.303Z,10.40
2019-04-10T18:54:18.655Z,10.60
2019-04-10T18:55:18.423Z,11.20
2019-04-10T18:56:18.819Z,11.30
2019-04-10T18:57:18.406Z,10.60
2019-04-10T18:58:19.248Z,11.00
2019-04-10T18:59:18.515Z,10.60
2019-04-10T19:00:18.781Z,11.20
2019-04-10T19:01:18.899Z,10.10
2019-04-10T19:02:18.343Z,10.10
2019-04-10T19:03:18.333Z,10.60
2019-04-10T19:04:18.345Z,10.20
2019-04-10T19:05:19.299Z,10.80
2019-04-10T19:06:18.424Z,10.30
2019-04-10T19:07:18.303Z,10.90
2019-04-10T19:08:18.349Z,10.60
2019-04-10T19:09:24.416Z,10.40
2019-04-10T19:10:19.894Z,10.70
2019-04-10T19:11:23.108Z,10.40
2019-04-10T19:12:19.230Z,10.80
2019-04-10T19:13:18.226Z,9.60
2019-04-10T19:14:18.464Z,10.60
2019-04-10T19:15:18.209Z,10.30
2019-04-10T19:16:19.559Z,11.00
2019-04-10T19:17:19.005Z,10.00
2019-04-10T19:18:18.166Z,10.80
2019-04-10T19:19:18.465Z,10.70
2019-04-10T19:20:18.166Z,9.90
2019-04-10T19:21:18.136Z,11.00
2019-04-10T19:22:18.133Z,10.30
2019-04-10T19:23:19.349Z,10.00
2019-04-10T19:24:18.096Z,10.70
2019-04-10T19:25:18.794Z,10.40
2019-04-10T19:26:18.991Z,10.10
2019-04-10T19:27:18.153Z,10.30
2019-04-10T19:28:28.010Z,10.00
2019-04-10T19:29:19.242Z,9.80
2019-04-10T19:30:19.091Z,9.80
2019-04-10T19:31:20.018Z,10.60
2019-04-10T19:32:18.359Z,10.40
2019-04-10T19:33:18.353Z,10.20
2019-04-10T19:34:18.007Z,10.20
2019-04-10T19:35:19.882Z,10.40
2019-04-10T19:36:17.961Z,10.10
2019-04-10T19:37:18.564Z,10.20
2019-04-10T19:38:19.006Z,10.20
2019-04-10T19:39:18.221Z,10.40
2019-04-10T19:40:17.941Z,10.00
2019-04-10T19:41:25.226Z,10.50
2019-04-10T19:42:19.460Z,9.80
2019-04-10T19:43:17.878Z,10.00
2019-04-10T19:44:18.987Z,10.10
2019-04-10T19:45:17.904Z,10.50
2019-04-10T19:46:17.872Z,10.50
2019-04-10T19:47:18.015Z,10.60
2019-04-10T19:48:17.825Z,10.20
2019-04-10T19:49:17.813Z,10.00
2019-04-10T19:50:17.857Z,10.00
2019-04-10T19:51:18.393Z,9.80
2019-04-10T19:52:17.779Z,9.30
2019-04-10T19:53:17.768Z,9.90
2019-04-10T19:54:17.864Z,10.10
2019-04-10T19:55:17.772Z,9.70
2019-04-10T19:56:18.172Z,10.30
2019-04-10T19:57:17.725Z,9.70
2019-04-10T19:58:17.737Z,10.00
2019-04-10T19:59:18.763Z,10.00
2019-04-10T20:00:17.686Z,10.10
2019-04-10T20:01:17.704Z,10.60
2019-04-10T20:02:17.682Z,10.10
2019-04-10T20:03:17.654Z,10.50
2019-04-10T20:04:18.750Z,10.20
2019-04-10T20:05:17.635Z,9.90
2019-04-10T20:06:19.874Z,9.80
2019-04-10T20:07:18.576Z,10.50
2019-04-10T20:08:17.646Z,10.30
2019-04-10T20:09:17.585Z,9.90
2019-04-10T20:10:17.577Z,10.20
2019-04-10T20:11:17.588Z,10.20
2019-04-10T20:12:18.194Z,9.90
2019-04-10T20:13:18.610Z,9.90
2019-04-10T20:14:17.532Z,10.20
2019-04-10T20:15:18.413Z,9.70
2019-04-10T20:16:17.531Z,10.30
2019-04-10T20:17:17.744Z,9.60
2019-04-10T20:18:17.483Z,9.20
2019-04-10T20:19:17.492Z,10.00
2019-04-10T20:20:17.467Z,9.80
2019-04-10T20:21:17.620Z,9.90
2019-04-10T20:22:17.437Z,10.10
2019-04-10T20:23:17.452Z,9.40
2019-04-10T20:24:17.416Z,9.60
2019-04-10T20:25:18.470Z,9.60
2019-04-10T20:26:17.428Z,9.90
2019-04-10T20:27:18.187Z,9.90
2019-04-10T20:28:17.388Z,9.90
2019-04-10T20:29:17.363Z,10.10